Time;durP1;ratioP1;P1;durP2;ratioP2;P2;SDS_P1;SDS_P2;PMS_P1;PMS_P2;Temp;Humidity;BMP_temperature;BMP_pressure;BME280_temperature;BME280_humidity;BME280_pressure;Samples;Min_cycle;Max_cycle;Signal;HPM_P1;HPM_P2
2021/08/26 00:01:17;;;;;;;10.82;7.82;;;17.20;99.90;;;;;;5012389;28;20026;-85
2021/08/26 00:06:27;;;;;;;11.15;8.43;;;17.20;99.90;;;;;;5030584;28;20509;-86
2021/08/26 00:08:54;;;;;;;14.88;9.07;;;17.20;99.90;;;;;;5033867;28;20025;-85
2021/08/26 00:11:24;;;;;;;15.35;9.95;;;17.20;99.90;;;;;;5016014;28;20028;-85
2021/08/26 00:13:52;;;;;;;16.30;11.20;;;17.20;99.90;;;;;;5016185;28;20022;-85
2021/08/26 00:16:24;;;;;;;14.70;10.43;;;17.20;99.90;;;;;;5015769;28;20032;-85
2021/08/26 00:18:49;;;;;;;15.98;11.05;;;17.20;99.90;;;;;;5015722;28;20021;-85
2021/08/26 00:21:15;;;;;;;16.05;11.10;;;17.10;99.90;;;;;;5015581;28;20489;-86
2021/08/26 00:23:41;;;;;;;17.52;11.60;;;17.10;99.90;;;;;;5015893;28;20066;-84
2021/08/26 00:26:07;;;;;;;19.52;12.48;;;17.10;99.90;;;;;;5015463;28;20471;-85
2021/08/26 00:28:33;;;;;;;16.58;12.20;;;17.10;99.90;;;;;;5015777;28;20021;-85
2021/08/26 00:30:59;;;;;;;16.15;11.88;;;17.00;99.90;;;;;;5015567;28;20021;-85
2021/08/26 00:33:25;;;;;;;16.88;11.93;;;17.00;99.90;;;;;;5033609;28;20095;-85
2021/08/26 00:35:51;;;;;;;16.27;12.15;;;17.00;99.90;;;;;;5015490;28;20087;-85
2021/08/26 00:38:16;;;;;;;21.00;13.25;;;17.00;99.90;;;;;;5015657;28;20025;-85
2021/08/26 00:40:42;;;;;;;17.50;11.82;;;16.90;99.90;;;;;;5015308;28;20473;-85
2021/08/26 00:43:08;;;;;;;19.10;13.20;;;16.90;99.90;;;;;;5015794;28;20152;-85
2021/08/26 00:45:38;;;;;;;17.80;13.02;;;16.90;99.90;;;;;;5015444;28;20022;-85
2021/08/26 00:48:07;;;;;;;22.83;16.17;;;17.00;99.90;;;;;;4999230;28;20026;-84
2021/08/26 00:50:33;;;;;;;25.17;16.83;;;16.90;99.90;;;;;;5015486;28;20029;-85
2021/08/26 00:52:58;;;;;;;29.27;17.55;;;17.00;99.90;;;;;;5015377;28;20030;-84
2021/08/26 00:55:25;;;;;;;32.50;20.63;;;17.00;99.90;;;;;;5014942;28;20037;-85
2021/08/26 00:57:51;;;;;;;28.98;19.52;;;17.00;99.90;;;;;;4999053;28;20512;-84
2021/08/26 01:00:18;;;;;;;29.42;20.27;;;17.00;99.90;;;;;;5014906;28;20423;-85
2021/08/26 01:02:58;;;;;;;24.55;17.67;;;16.90;99.90;;;;;;5015431;28;20052;-85
2021/08/26 01:05:32;;;;;;;24.88;16.45;;;16.90;99.90;;;;;;5014666;28;20029;-85
2021/08/26 01:08:31;;;;;;;15.45;11.63;;;16.90;99.90;;;;;;5033321;28;20533;-85
2021/08/26 01:10:58;;;;;;;;;;;17.00;99.90;;;;;;5010410;28;20030;-85
2021/08/26 01:13:32;;;;;;;11.82;9.30;;;17.00;99.90;;;;;;5015555;28;20540;-85
2021/08/26 01:16:08;;;;;;;10.90;8.32;;;17.00;99.90;;;;;;5032904;28;20130;-85
2021/08/26 01:18:36;;;;;;;8.65;5.50;;;17.00;99.90;;;;;;5014722;28;20025;-85
2021/08/26 01:21:03;;;;;;;9.73;5.57;;;16.90;99.90;;;;;;5014940;28;20101;-85
2021/08/26 01:23:35;;;;;;;11.45;4.38;;;16.90;99.90;;;;;;5033056;28;20057;-86
2021/08/26 01:26:08;;;;;;;7.93;3.80;;;16.70;99.90;;;;;;5032462;28;20022;-84
2021/08/26 01:28:40;;;;;;;9.38;4.25;;;16.70;99.90;;;;;;5014912;28;20019;-85
2021/08/26 01:31:06;;;;;;;10.85;3.80;;;16.70;99.90;;;;;;5014816;28;20478;-85
2021/08/26 01:33:33;;;;;;;8.82;4.07;;;16.60;99.90;;;;;;5032725;28;20071;-84
2021/08/26 01:36:03;;;;;;;7.68;3.45;;;16.70;99.90;;;;;;5014725;28;20072;-85
2021/08/26 01:38:29;;;;;;;6.00;3.58;;;16.60;99.90;;;;;;5014762;28;20029;-86
2021/08/26 01:40:55;;;;;;;7.95;2.60;;;16.70;99.90;;;;;;5014067;28;20335;-84
2021/08/26 01:43:23;;;;;;;5.55;2.92;;;16.70;99.90;;;;;;5014701;28;20025;-84
2021/08/26 01:45:49;;;;;;;7.43;2.87;;;16.70;99.90;;;;;;5014303;28;20029;-85
2021/08/26 01:48:19;;;;;;;7.03;2.85;;;16.80;99.90;;;;;;5014219;28;20478;-85
2021/08/26 01:50:48;;;;;;;6.60;2.88;;;16.80;99.90;;;;;;5013972;28;20028;-85
2021/08/26 01:53:14;;;;;;;7.63;2.60;;;16.80;99.90;;;;;;5014556;28;20108;-85
2021/08/26 01:55:40;;;;;;;6.28;2.67;;;16.80;99.90;;;;;;5013934;28;20029;-85
2021/08/26 01:58:07;;;;;;;7.80;2.90;;;16.90;99.90;;;;;;5014351;28;20038;-85
2021/08/26 02:00:33;;;;;;;9.02;3.30;;;16.90;99.90;;;;;;5031833;28;20125;-85
2021/08/26 02:02:59;;;;;;;9.88;3.60;;;16.90;99.90;;;;;;5032082;28;20052;-85
2021/08/26 02:05:24;;;;;;;10.90;3.70;;;16.90;99.90;;;;;;5013698;28;20033;-85
2021/08/26 02:07:51;;;;;;;9.35;4.20;;;16.90;99.90;;;;;;5031860;28;20151;-85
2021/08/26 02:10:17;;;;;;;12.82;5.63;;;16.90;99.90;;;;;;5013795;28;20031;-85
2021/08/26 02:12:43;;;;;;;10.45;4.28;;;17.00;99.90;;;;;;5014374;28;20104;-85
2021/08/26 02:15:09;;;;;;;10.93;3.92;;;17.00;99.90;;;;;;5013980;28;20033;-85
2021/08/26 02:17:35;;;;;;;6.70;2.92;;;17.00;99.90;;;;;;5013911;28;20084;-84
2021/08/26 02:20:02;;;;;;;10.68;5.30;;;16.90;99.90;;;;;;5031626;28;20025;-84
2021/08/26 02:22:28;;;;;;;10.90;3.80;;;17.00;99.90;;;;;;5031657;28;20127;-86
2021/08/26 02:24:53;;;;;;;11.20;3.22;;;16.90;99.90;;;;;;5013575;28;20605;-85
2021/08/26 02:27:19;;;;;;;10.13;2.92;;;17.00;99.90;;;;;;5031726;28;20021;-85
2021/08/26 02:29:45;;;;;;;10.95;3.85;;;16.90;99.90;;;;;;5031028;28;20038;-85
2021/08/26 02:32:10;;;;;;;7.25;3.30;;;16.90;99.90;;;;;;5031601;28;20033;-85
2021/08/26 02:34:36;;;;;;;8.73;3.60;;;16.90;99.90;;;;;;5012190;28;20052;-86
2021/08/26 02:37:02;;;;;;;8.52;2.70;;;17.00;99.90;;;;;;5013207;28;20037;-85
2021/08/26 02:39:27;;;;;;;8.77;2.95;;;17.00;99.90;;;;;;5013145;28;20139;-85
2021/08/26 02:41:53;;;;;;;8.80;3.15;;;16.90;99.90;;;;;;5031262;28;20030;-85
2021/08/26 02:44:19;;;;;;;9.48;2.90;;;16.90;99.90;;;;;;5031045;28;20091;-85
2021/08/26 02:46:44;;;;;;;8.73;3.40;;;17.00;99.90;;;;;;5013317;28;20433;-85
2021/08/26 02:49:10;;;;;;;8.23;3.08;;;17.00;99.90;;;;;;5013003;28;20025;-84
2021/08/26 02:51:35;;;;;;;11.25;3.17;;;16.90;99.90;;;;;;5013056;28;20378;-85
2021/08/26 02:54:01;;;;;;;10.77;3.03;;;16.90;99.90;;;;;;5031051;28;20022;-85
2021/08/26 02:56:27;;;;;;;8.70;2.95;;;16.90;99.90;;;;;;5013358;28;20053;-84
2021/08/26 02:58:52;;;;;;;10.32;3.15;;;16.90;99.90;;;;;;5013260;28;20633;-86
2021/08/26 03:01:18;;;;;;;8.57;3.17;;;16.90;99.90;;;;;;5012994;28;20034;-85
2021/08/26 03:03:44;;;;;;;10.30;3.30;;;16.90;99.90;;;;;;5013305;28;20136;-85
2021/08/26 03:06:10;;;;;;;7.28;2.90;;;16.90;99.90;;;;;;5013219;28;20021;-85
2021/08/26 03:08:36;;;;;;;9.38;2.65;;;16.90;99.90;;;;;;5031129;28;20092;-85
2021/08/26 03:11:02;;;;;;;13.15;4.22;;;16.90;99.90;;;;;;5030305;28;20470;-85
2021/08/26 03:13:27;;;;;;;10.50;3.47;;;16.80;99.90;;;;;;5013026;28;20144;-85
2021/08/26 03:15:53;;;;;;;8.27;3.53;;;16.90;99.90;;;;;;5030591;28;20061;-84
2021/08/26 03:18:19;;;;;;;9.57;3.42;;;16.80;99.90;;;;;;5030829;28;20026;-85
2021/08/26 03:20:44;;;;;;;9.10;3.22;;;16.90;99.90;;;;;;5012692;28;20028;-84
2021/08/26 03:23:12;;;;;;;12.27;2.95;;;16.80;99.90;;;;;;5012896;28;20079;-85
2021/08/26 03:25:37;;;;;;;12.73;3.55;;;16.80;99.90;;;;;;5012616;28;20075;-85
2021/08/26 03:28:03;;;;;;;9.57;3.15;;;16.80;99.90;;;;;;5030778;28;20097;-85
2021/08/26 03:30:29;;;;;;;12.45;3.38;;;16.80;99.90;;;;;;5030205;28;20049;-85
2021/08/26 03:32:55;;;;;;;13.02;3.75;;;16.80;99.90;;;;;;5030657;28;20067;-84
2021/08/26 03:35:20;;;;;;;10.93;3.17;;;16.80;99.90;;;;;;5012559;28;20025;-84
2021/08/26 03:37:46;;;;;;;8.60;2.65;;;16.80;99.90;;;;;;5030625;28;20025;-85
2021/08/26 03:40:12;;;;;;;12.55;3.25;;;16.80;99.90;;;;;;5029951;28;20029;-86
2021/08/26 03:42:38;;;;;;;9.95;2.90;;;16.70;99.90;;;;;;5034134;28;20029;-85
2021/08/26 03:45:05;;;;;;;12.23;3.33;;;16.80;99.90;;;;;;5034062;28;20599;-85
2021/08/26 03:47:30;;;;;;;9.77;3.08;;;16.70;99.90;;;;;;5016611;28;20033;-85
2021/08/26 03:49:56;;;;;;;7.28;2.95;;;16.70;99.90;;;;;;5016281;28;20394;-85
2021/08/26 03:52:21;;;;;;;14.52;2.97;;;16.70;99.90;;;;;;5034606;28;20032;-84
2021/08/26 03:54:47;;;;;;;8.18;2.40;;;16.70;99.90;;;;;;5016375;28;20035;-85
2021/08/26 03:57:13;;;;;;;8.65;2.72;;;16.60;99.90;;;;;;5034464;28;20100;-85
2021/08/26 03:59:38;;;;;;;8.88;2.67;;;16.60;99.90;;;;;;5015870;28;20033;-85
2021/08/26 04:02:04;;;;;;;10.95;2.40;;;16.70;99.30;;;;;;5016407;28;20037;-84
2021/08/26 04:04:29;;;;;;;7.70;2.05;;;16.70;98.30;;;;;;5034165;28;20067;-85
2021/08/26 04:06:55;;;;;;;5.53;1.73;;;16.70;98.40;;;;;;5016437;28;20033;-85
2021/08/26 04:09:21;;;;;;;7.68;1.92;;;16.60;97.60;;;;;;5016243;28;20017;-85
2021/08/26 04:11:46;;;;;;;11.50;2.33;;;16.60;97.50;;;;;;5016168;28;20120;-84
2021/08/26 04:14:12;;;;;;;7.15;2.00;;;16.60;97.30;;;;;;5034038;28;20037;-84
2021/08/26 04:16:38;;;;;;;11.98;2.83;;;16.60;97.30;;;;;;5033812;28;20589;-85
2021/08/26 04:19:03;;;;;;;8.15;2.85;;;16.60;97.40;;;;;;5015729;28;20025;-85
2021/08/26 04:21:29;;;;;;;11.20;2.30;;;16.60;97.70;;;;;;5033779;28;20104;-85
2021/08/26 04:23:55;;;;;;;11.32;2.50;;;16.60;97.70;;;;;;5015915;28;20473;-85
2021/08/26 04:26:20;;;;;;;6.72;2.00;;;16.60;97.40;;;;;;5033819;28;20028;-85
2021/08/26 04:28:46;;;;;;;7.15;2.30;;;16.60;97.50;;;;;;5016108;28;20442;-85
2021/08/26 04:31:12;;;;;;;9.88;2.38;;;16.60;97.40;;;;;;5015677;28;20056;-85
2021/08/26 04:33:37;;;;;;;13.40;2.72;;;16.60;97.50;;;;;;5015943;28;20017;-85
2021/08/26 04:36:03;;;;;;;9.07;2.60;;;16.60;97.30;;;;;;5015739;28;20029;-85
2021/08/26 04:38:29;;;;;;;8.88;3.20;;;16.60;97.60;;;;;;5033639;28;20080;-85
2021/08/26 04:40:55;;;;;;;11.15;3.08;;;16.60;97.50;;;;;;5015624;28;20056;-85
2021/08/26 04:43:20;;;;;;;9.98;2.63;;;16.60;97.70;;;;;;5033803;28;20032;-85
2021/08/26 04:45:46;;;;;;;9.43;2.72;;;16.60;97.60;;;;;;5015590;28;20021;-85
2021/08/26 04:48:11;;;;;;;11.73;2.85;;;16.70;97.50;;;;;;5034920;28;20025;-85
2021/08/26 04:50:37;;;;;;;9.30;2.40;;;16.70;97.80;;;;;;5017147;28;20040;-85
2021/08/26 04:53:03;;;;;;;6.80;2.20;;;16.70;97.80;;;;;;5016834;28;20328;-85
2021/08/26 04:55:28;;;;;;;10.90;2.38;;;16.70;98.00;;;;;;5034139;28;20514;-85
2021/08/26 04:57:54;;;;;;;13.73;3.03;;;16.70;98.00;;;;;;5016547;28;20029;-85
2021/08/26 05:00:20;;;;;;;9.07;2.53;;;16.70;98.20;;;;;;5033388;28;20164;-85
2021/08/26 05:02:45;;;;;;;9.35;2.40;;;16.70;98.50;;;;;;5015232;28;20029;-85
2021/08/26 05:05:11;;;;;;;8.45;2.17;;;16.70;98.70;;;;;;5015126;28;20037;-85
2021/08/26 05:07:37;;;;;;;11.10;3.15;;;16.70;98.90;;;;;;5028112;28;20079;-85
2021/08/26 05:10:04;;;;;;;9.90;2.67;;;16.70;99.00;;;;;;5017957;28;20029;-85
2021/08/26 05:12:30;;;;;;;11.45;2.60;;;16.70;99.00;;;;;;5014908;28;20017;-85
2021/08/26 05:14:57;;;;;;;11.95;2.50;;;16.70;98.80;;;;;;5014767;28;20125;-85
2021/08/26 05:17:22;;;;;;;9.60;2.60;;;16.70;98.80;;;;;;5033047;28;20029;-85
2021/08/26 05:19:48;;;;;;;8.60;2.40;;;16.70;99.10;;;;;;5014483;28;20035;-84
2021/08/26 05:22:14;;;;;;;10.70;2.67;;;16.70;99.10;;;;;;5015048;28;20116;-84
2021/08/26 05:24:40;;;;;;;7.20;2.25;;;16.70;99.10;;;;;;5014580;28;20087;-84
2021/08/26 05:27:06;;;;;;;8.60;2.58;;;16.70;99.20;;;;;;5015062;28;20021;-84
2021/08/26 05:29:31;;;;;;;10.85;2.95;;;16.80;99.00;;;;;;5014482;28;20379;-85
2021/08/26 05:31:57;;;;;;;10.48;3.05;;;16.80;99.00;;;;;;5032541;28;20022;-85
2021/08/26 05:34:23;;;;;;;9.85;2.75;;;16.80;99.00;;;;;;5014646;28;20028;-87
2021/08/26 05:36:48;;;;;;;8.88;2.35;;;16.80;99.00;;;;;;5014833;28;20033;-86
2021/08/26 05:39:14;;;;;;;11.48;2.78;;;16.80;98.90;;;;;;5014099;28;20033;-85
2021/08/26 05:41:44;;;;;;;13.18;3.25;;;16.70;98.80;;;;;;5032302;28;20371;-86
2021/08/26 05:44:14;;;;;;;6.68;2.42;;;16.70;98.80;;;;;;5032132;28;20036;-88
2021/08/26 05:46:41;;;;;;;14.27;2.85;;;16.80;98.70;;;;;;5014418;28;20051;-87
2021/08/26 05:49:06;;;;;;;9.18;2.45;;;16.70;98.70;;;;;;5013823;28;20041;-87
2021/08/26 05:51:32;;;;;;;10.15;2.38;;;16.70;98.90;;;;;;5014231;28;20178;-87
2021/08/26 05:53:57;;;;;;;9.50;2.60;;;16.80;98.40;;;;;;5014504;28;20386;-87
2021/08/26 05:56:23;;;;;;;9.07;2.30;;;16.80;98.40;;;;;;5014229;28;20030;-87
2021/08/26 05:58:49;;;;;;;9.55;2.65;;;16.80;98.50;;;;;;5014194;28;20037;-87
2021/08/26 06:01:14;;;;;;;6.43;2.20;;;16.80;98.30;;;;;;5013981;28;20132;-87
2021/08/26 06:03:40;;;;;;;8.55;2.80;;;16.80;98.40;;;;;;5014038;28;20367;-87
2021/08/26 06:06:05;;;;;;;10.25;2.60;;;16.80;98.70;;;;;;5013075;28;20030;-87
2021/08/26 06:08:31;;;;;;;10.10;2.45;;;16.80;98.50;;;;;;5014162;28;20064;-87
2021/08/26 06:10:57;;;;;;;10.80;2.55;;;16.80;98.40;;;;;;5031188;28;20501;-87
2021/08/26 06:13:23;;;;;;;11.80;2.00;;;16.80;98.40;;;;;;5014390;28;20056;-88
2021/08/26 06:15:48;;;;;;;8.80;2.60;;;16.80;98.50;;;;;;5014189;28;20401;-87
2021/08/26 06:18:15;;;;;;;10.35;2.45;;;16.80;98.90;;;;;;5014128;28;20068;-87
2021/08/26 06:20:42;;;;;;;14.27;2.63;;;16.80;98.70;;;;;;5013327;28;20061;-88
2021/08/26 06:23:08;;;;;;;14.73;3.45;;;16.80;98.80;;;;;;5013873;28;20120;-88
2021/08/26 06:25:34;;;;;;;11.63;3.10;;;16.80;98.90;;;;;;5031049;28;20140;-88
2021/08/26 06:28:00;;;;;;;12.13;2.80;;;16.80;99.50;;;;;;5014130;28;20108;-88
2021/08/26 06:30:26;;;;;;;16.73;3.28;;;16.80;99.40;;;;;;5030888;28;20462;-88
2021/08/26 06:32:53;;;;;;;13.52;3.20;;;16.80;99.50;;;;;;5013941;28;20061;-88
2021/08/26 06:35:19;;;;;;;15.20;3.63;;;16.80;99.50;;;;;;5013647;28;20525;-86
2021/08/26 06:37:44;;;;;;;14.35;3.08;;;16.80;99.90;;;;;;5013669;28;20029;-87
2021/08/26 06:40:11;;;;;;;13.20;3.35;;;16.80;99.90;;;;;;5012565;28;20029;-87
2021/08/26 06:42:37;;;;;;;10.07;3.35;;;16.90;99.90;;;;;;5031129;28;20051;-87
2021/08/26 06:45:03;;;;;;;13.80;3.50;;;16.90;99.90;;;;;;5030854;28;20029;-87
2021/08/26 06:47:29;;;;;;;18.08;3.88;;;16.90;99.90;;;;;;5013561;28;20026;-87
2021/08/26 06:49:55;;;;;;;11.40;3.22;;;16.80;99.90;;;;;;5012688;28;20033;-87
2021/08/26 06:52:20;;;;;;;15.23;4.07;;;16.80;99.90;;;;;;5031313;28;20021;-87
2021/08/26 06:54:46;;;;;;;14.65;4.75;;;16.90;99.90;;;;;;5030692;28;20526;-87
2021/08/26 06:57:12;;;;;;;12.85;3.75;;;16.80;99.90;;;;;;5013333;28;20026;-87
2021/08/26 06:59:37;;;;;;;16.20;4.03;;;16.90;99.90;;;;;;5012845;28;20044;-87
2021/08/26 07:02:03;;;;;;;14.25;3.33;;;16.90;99.90;;;;;;5030965;28;20025;-87
2021/08/26 07:04:29;;;;;;;17.15;3.85;;;17.00;99.90;;;;;;5013198;28;20044;-87
2021/08/26 07:06:55;;;;;;;12.35;3.03;;;16.90;99.90;;;;;;5013448;28;20036;-87
2021/08/26 07:09:22;;;;;;;12.27;3.03;;;16.90;99.90;;;;;;5012687;28;20391;-86
2021/08/26 07:11:48;;;;;;;12.15;3.33;;;16.90;99.90;;;;;;5012889;28;20052;-89
2021/08/26 07:14:14;;;;;;;11.30;3.22;;;16.80;99.90;;;;;;5013450;28;20457;-89
2021/08/26 07:16:40;;;;;;;12.00;3.42;;;16.80;99.90;;;;;;5012744;28;20034;-89
2021/08/26 07:19:05;;;;;;;15.98;4.07;;;16.90;99.90;;;;;;5012388;28;20033;-89
2021/08/26 07:21:31;;;;;;;13.27;4.00;;;16.90;99.90;;;;;;5013476;28;20048;-89
2021/08/26 07:23:57;;;;;;;11.07;3.50;;;16.90;99.90;;;;;;5013024;28;20037;-88
2021/08/26 07:26:23;;;;;;;15.10;3.60;;;16.90;99.90;;;;;;5002269;28;20482;-89
2021/08/26 07:28:49;;;;;;;14.45;3.80;;;16.90;99.90;;;;;;4993413;28;20056;-88
2021/08/26 07:31:14;;;;;;;13.75;3.45;;;16.90;99.90;;;;;;5010666;28;20110;-89
2021/08/26 07:33:40;;;;;;;15.30;3.35;;;16.90;99.90;;;;;;4993699;28;20112;-89
2021/08/26 07:36:06;;;;;;;16.58;3.22;;;16.90;99.90;;;;;;5011045;28;20034;-88
2021/08/26 07:38:31;;;;;;;14.48;3.75;;;16.90;99.90;;;;;;5009917;28;20037;-88
2021/08/26 07:40:57;;;;;;;12.80;2.85;;;16.90;99.90;;;;;;5008199;28;20063;-89
2021/08/26 07:43:25;;;;;;;12.30;3.15;;;16.90;99.90;;;;;;5009450;28;20394;-90
2021/08/26 07:45:52;;;;;;;16.27;3.20;;;16.90;99.90;;;;;;5010578;28;20462;-90
2021/08/26 07:48:18;;;;;;;12.80;2.88;;;16.80;99.90;;;;;;5009753;28;20112;-87
2021/08/26 07:50:44;;;;;;;10.75;3.22;;;16.80;99.90;;;;;;5008943;28;20030;-86
2021/08/26 07:53:09;;;;;;;12.70;3.08;;;16.80;99.90;;;;;;5010940;28;20033;-86
2021/08/26 07:55:35;;;;;;;13.52;3.15;;;16.80;99.90;;;;;;5008962;28;20026;-86
2021/08/26 07:58:01;;;;;;;10.88;3.10;;;16.70;99.90;;;;;;5009512;28;20048;-89
2021/08/26 08:00:27;;;;;;;12.15;3.40;;;16.70;99.90;;;;;;5010167;28;20181;-85
2021/08/26 08:02:52;;;;;;;12.00;3.15;;;16.60;99.90;;;;;;5011456;28;20498;-86
2021/08/26 08:05:18;;;;;;;10.43;2.85;;;16.50;99.90;;;;;;5010912;28;20108;-87
2021/08/26 08:07:45;;;;;;;13.90;2.90;;;16.50;99.90;;;;;;5009784;28;20331;-87
2021/08/26 08:10:13;;;;;;;15.35;3.30;;;16.50;99.90;;;;;;5007998;28;20484;-89
2021/08/26 08:12:38;;;;;;;13.07;3.03;;;16.50;99.90;;;;;;5009551;28;20510;-88
2021/08/26 08:15:05;;;;;;;10.65;3.00;;;16.50;99.90;;;;;;5009385;28;20099;-88
2021/08/26 08:17:31;;;;;;;11.07;3.28;;;16.50;99.90;;;;;;5023476;28;20026;-89
2021/08/26 08:19:57;;;;;;;11.65;3.13;;;16.50;99.90;;;;;;5029318;28;20104;-89
2021/08/26 08:22:22;;;;;;;15.25;3.53;;;16.60;99.90;;;;;;5012825;28;20128;-87
2021/08/26 08:24:48;;;;;;;13.18;2.97;;;16.50;99.90;;;;;;5011748;28;20646;-87
2021/08/26 08:27:14;;;;;;;11.38;3.42;;;16.60;99.90;;;;;;5012605;28;20026;-87
2021/08/26 08:29:39;;;;;;;11.55;3.15;;;16.60;99.90;;;;;;5014471;28;20064;-87
2021/08/26 08:32:05;;;;;;;11.80;3.67;;;16.70;99.90;;;;;;5015807;28;20339;-89
2021/08/26 08:34:31;;;;;;;11.95;2.75;;;16.60;99.90;;;;;;5015919;28;20029;-88
2021/08/26 08:36:57;;;;;;;10.32;2.85;;;16.60;99.90;;;;;;5033649;28;20034;-88
2021/08/26 08:39:23;;;;;;;12.10;3.00;;;16.60;99.90;;;;;;5014687;28;20037;-87
2021/08/26 08:41:49;;;;;;;9.32;2.83;;;16.60;99.90;;;;;;5015511;28;20176;-88
2021/08/26 08:44:15;;;;;;;11.98;3.40;;;16.50;99.90;;;;;;5015820;28;20033;-85
2021/08/26 08:46:44;;;;;;;13.55;3.63;;;16.60;99.90;;;;;;5032885;28;20025;-85
2021/08/26 08:49:12;;;;;;;15.82;3.92;;;16.60;99.90;;;;;;5019985;28;20030;-87
2021/08/26 08:51:39;;;;;;;13.57;3.90;;;16.70;99.90;;;;;;4995801;28;20022;-85
2021/08/26 08:54:05;;;;;;;11.25;3.20;;;16.70;99.90;;;;;;4995789;28;20048;-85
2021/08/26 08:56:31;;;;;;;13.30;4.20;;;16.70;99.90;;;;;;5013105;28;20022;-87
2021/08/26 08:59:03;;;;;;;15.60;3.90;;;16.80;99.90;;;;;;5005500;28;20033;-88
2021/08/26 09:01:29;;;;;;;13.13;4.00;;;16.80;99.90;;;;;;5015242;28;20079;-87
2021/08/26 09:03:55;;;;;;;17.15;4.32;;;16.80;99.90;;;;;;5015260;28;20026;-87
2021/08/26 09:06:20;;;;;;;12.27;3.10;;;16.80;99.90;;;;;;5014983;28;20018;-85
2021/08/26 09:09:06;;;;;;;9.32;2.78;;;16.80;99.90;;;;;;5023432;28;20494;-85
2021/08/26 09:11:33;;;;;;;9.32;2.92;;;16.80;99.90;;;;;;5012782;28;20101;-87
2021/08/26 09:14:13;;;;;;;12.50;3.35;;;16.70;99.90;;;;;;4995483;28;20026;-85
2021/08/26 09:16:45;;;;;;;7.38;2.50;;;16.80;99.90;;;;;;4992651;28;20080;-85
2021/08/26 09:19:19;;;;;;;9.40;2.40;;;16.70;99.90;;;;;;4994252;28;20495;-86
2021/08/26 09:21:45;;;;;;;10.60;3.35;;;16.80;99.90;;;;;;4995256;28;20091;-86
2021/08/26 09:24:10;;;;;;;12.32;2.75;;;16.80;99.90;;;;;;4994980;28;20022;-86
2021/08/26 09:26:36;;;;;;;8.73;2.90;;;16.90;99.90;;;;;;4994951;28;20026;-86
2021/08/26 09:29:04;;;;;;;10.30;3.47;;;16.90;99.90;;;;;;5011876;28;20076;-87
2021/08/26 09:31:31;;;;;;;9.77;2.83;;;16.90;99.90;;;;;;5011398;28;20026;-87
2021/08/26 09:34:04;;;;;;;10.10;3.25;;;17.00;99.90;;;;;;5012818;28;20030;-87
2021/08/26 09:36:35;;;;;;;12.18;3.53;;;17.20;99.90;;;;;;5011353;28;20114;-86
2021/08/26 09:39:12;;;;;;;12.80;3.22;;;17.30;99.90;;;;;;5011490;28;20026;-86
2021/08/26 09:41:54;;;;;;;9.40;3.40;;;17.40;99.90;;;;;;4994453;28;20072;-87
2021/08/26 09:44:25;;;;;;;10.48;2.90;;;17.40;99.90;;;;;;4994616;28;20030;-87
2021/08/26 09:46:53;;;;;;;14.25;3.45;;;17.40;99.90;;;;;;4994767;28;20041;-87
2021/08/26 09:49:24;;;;;;;9.63;3.05;;;17.40;99.90;;;;;;5006944;28;20590;-86
2021/08/26 09:52:11;;;;;;;10.60;2.75;;;17.40;99.90;;;;;;5014110;28;20433;-86
2021/08/26 09:54:45;;;;;;;10.35;3.72;;;17.40;99.90;;;;;;5014089;28;20137;-87
2021/08/26 09:57:39;;;;;;;10.57;3.58;;;17.40;99.90;;;;;;5014185;28;20684;-86
2021/08/26 10:00:05;;;;;;;9.63;3.42;;;17.40;99.90;;;;;;4991019;28;20104;-87
2021/08/26 10:02:32;;;;;;;10.77;3.42;;;17.50;99.90;;;;;;4994518;28;20642;-86
2021/08/26 10:04:58;;;;;;;9.32;2.58;;;17.50;99.90;;;;;;4994184;28;20117;-87
2021/08/26 10:07:26;;;;;;;9.23;3.05;;;17.50;99.90;;;;;;4993926;28;20026;-86
2021/08/26 10:09:52;;;;;;;10.32;3.00;;;17.50;99.90;;;;;;4994131;28;20021;-86
2021/08/26 10:12:18;;;;;;;11.38;2.63;;;17.60;99.90;;;;;;4997378;28;20108;-87
2021/08/26 10:14:46;;;;;;;11.98;3.03;;;17.60;99.90;;;;;;5013312;28;20055;-86
2021/08/26 10:17:14;;;;;;;9.97;3.43;;;17.60;99.90;;;;;;5013670;28;20027;-86
2021/08/26 10:19:41;;;;;;;13.63;3.75;;;17.60;99.90;;;;;;5012811;28;20025;-86
2021/08/26 10:22:09;;;;;;;8.35;3.33;;;17.60;99.90;;;;;;5031234;28;20049;-87
2021/08/26 10:24:35;;;;;;;11.27;3.53;;;17.70;99.90;;;;;;5013174;28;20504;-86
2021/08/26 10:27:17;;;;;;;14.25;3.60;;;17.70;99.90;;;;;;5012851;28;20021;-85
2021/08/26 10:29:45;;;;;;;12.85;4.00;;;17.80;99.90;;;;;;5012281;28;20053;-87
2021/08/26 10:32:19;;;;;;;10.30;3.30;;;17.80;99.90;;;;;;5031198;28;20017;-87
2021/08/26 10:35:06;;;;;;;12.20;3.60;;;17.80;99.90;;;;;;5013277;28;20113;-87
2021/08/26 10:37:55;;;;;;;14.38;4.45;;;17.90;99.90;;;;;;5031137;28;20064;-87
2021/08/26 10:40:27;;;;;;;14.68;4.35;;;17.90;99.80;;;;;;5012254;28;20033;-86
2021/08/26 10:42:54;;;;;;;13.57;4.15;;;18.00;99.90;;;;;;5013180;28;20033;-86
2021/08/26 10:45:25;;;;;;;11.45;2.90;;;18.10;99.90;;;;;;5012835;28;20025;-86
2021/08/26 10:47:52;;;;;;;9.77;3.15;;;18.10;99.70;;;;;;5030778;28;20032;-86
2021/08/26 10:50:34;;;;;;;9.77;2.72;;;18.00;99.60;;;;;;5011948;28;20052;-86
2021/08/26 10:53:04;;;;;;;11.55;2.60;;;18.00;99.80;;;;;;5030997;28;20024;-87
2021/08/26 10:55:40;;;;;;;8.75;2.78;;;17.90;99.90;;;;;;5012573;28;20300;-86
2021/08/26 10:58:17;;;;;;;13.68;3.20;;;17.90;99.90;;;;;;5013078;28;20025;-86
2021/08/26 11:00:44;;;;;;;12.05;2.97;;;18.00;99.90;;;;;;5012127;28;20025;-87
2021/08/26 11:03:30;;;;;;;10.95;3.30;;;18.00;99.90;;;;;;5030608;28;20025;-87
2021/08/26 11:05:56;;;;;;;9.45;2.90;;;18.00;99.50;;;;;;5012187;28;20036;-87
2021/08/26 11:08:33;;;;;;;9.40;2.97;;;18.10;99.60;;;;;;5012785;28;20100;-86
2021/08/26 11:11:24;;;;;;;11.93;3.28;;;18.20;99.20;;;;;;5010911;28;20129;-87
2021/08/26 11:13:50;;;;;;;9.38;2.72;;;18.20;98.90;;;;;;4997699;28;20112;-86
2021/08/26 11:16:25;;;;;;;9.13;2.70;;;18.20;98.90;;;;;;5012583;28;20051;-87
2021/08/26 11:18:51;;;;;;;6.63;2.65;;;18.20;98.90;;;;;;5030143;28;20576;-87
2021/08/26 11:21:38;;;;;;;8.40;3.33;;;18.30;99.10;;;;;;5012326;28;20121;-86
2021/08/26 11:24:04;;;;;;;9.35;2.75;;;18.30;98.80;;;;;;5012498;28;20026;-87
2021/08/26 11:26:49;;;;;;;8.18;2.83;;;18.40;98.70;;;;;;5067918;23;20063;-85
2021/08/26 11:29:21;;;;;;;10.70;3.22;;;18.40;98.70;;;;;;5012257;28;20541;-85
2021/08/26 11:31:57;;;;;;;7.05;2.58;;;18.40;98.30;;;;;;5012702;28;20029;-85
2021/08/26 11:34:30;;;;;;;9.10;2.97;;;18.50;98.10;;;;;;5013221;28;20084;-85
2021/08/26 11:37:13;;;;;;;8.70;2.33;;;18.50;98.00;;;;;;5015051;28;20033;-85
2021/08/26 11:39:44;;;;;;;9.45;2.70;;;18.40;98.00;;;;;;5014715;28;20033;-85
2021/08/26 11:42:35;;;;;;;11.45;3.00;;;18.50;97.80;;;;;;5014442;28;20154;-85
2021/08/26 11:45:09;;;;;;;10.80;3.03;;;18.50;98.00;;;;;;5012431;28;20427;-85
2021/08/26 11:47:37;;;;;;;8.50;2.72;;;18.50;97.70;;;;;;5012253;28;20444;-85
2021/08/26 11:50:15;;;;;;;8.43;2.60;;;18.50;97.40;;;;;;5011630;28;20037;-85
2021/08/26 11:52:42;;;;;;;8.40;2.53;;;18.60;97.70;;;;;;5012139;28;20036;-85
2021/08/26 11:55:08;;;;;;;7.15;2.08;;;18.60;97.50;;;;;;5011734;28;20033;-85
2021/08/26 11:57:34;;;;;;;8.13;2.60;;;18.50;97.40;;;;;;5011640;28;20111;-85
2021/08/26 12:00:12;;;;;;;9.38;2.80;;;18.60;97.70;;;;;;5011455;28;20033;-85
2021/08/26 12:02:40;;;;;;;10.80;3.03;;;18.60;97.70;;;;;;5012402;28;20032;-85
2021/08/26 12:05:10;;;;;;;12.38;3.00;;;18.70;97.40;;;;;;5033320;28;20791;-85
2021/08/26 12:07:39;;;;;;;7.13;2.80;;;18.70;97.20;;;;;;5016015;28;20160;-85
2021/08/26 12:10:12;;;;;;;9.82;3.05;;;18.70;97.30;;;;;;5015146;28;20094;-84
2021/08/26 12:12:47;;;;;;;14.75;5.28;;;18.80;97.40;;;;;;5033647;28;20018;-85
2021/08/26 12:15:23;;;;;;;11.23;3.83;;;18.80;98.00;;;;;;5016167;28;20028;-85
2021/08/26 12:18:00;;;;;;;7.68;3.13;;;18.80;97.20;;;;;;5016126;28;20330;-85
2021/08/26 12:20:27;;;;;;;10.05;3.35;;;18.90;97.30;;;;;;5015406;28;20096;-85
2021/08/26 12:22:53;;;;;;;9.82;2.45;;;18.90;97.20;;;;;;5015952;28;20032;-85
2021/08/26 12:25:21;;;;;;;7.97;2.55;;;19.00;97.00;;;;;;5033068;28;20030;-85
2021/08/26 12:27:59;;;;;;;7.28;2.20;;;18.90;96.70;;;;;;5015785;28;20079;-85
2021/08/26 12:30:35;;;;;;;7.33;2.37;;;18.90;96.60;;;;;;5015102;28;20033;-85
2021/08/26 12:33:06;;;;;;;7.82;2.22;;;19.00;96.60;;;;;;5015821;28;20044;-85
2021/08/26 12:35:40;;;;;;;9.38;2.42;;;19.00;96.40;;;;;;5015750;28;20029;-85
2021/08/26 12:38:05;;;;;;;8.90;2.70;;;18.90;96.20;;;;;;5015836;28;20035;-85
2021/08/26 12:40:51;;;;;;;7.57;2.47;;;19.00;96.40;;;;;;5032456;28;20021;-85
2021/08/26 12:43:17;;;;;;;7.72;2.17;;;19.00;96.50;;;;;;5015864;28;20037;-85
2021/08/26 12:45:43;;;;;;;9.65;2.67;;;19.10;96.20;;;;;;5015211;28;20085;-85
2021/08/26 12:48:24;;;;;;;8.57;2.28;;;19.10;96.20;;;;;;5033545;28;20037;-85